Fort Thomson, Canada
Current Conditions -  °F | °C
As of 11:00 AM on Monday 22 Dec 2014 (Local Time) from CYCO Reporting Station
Ice Pellets Ice Pellets  
Wind Chill: -33°   Ceiling: Unl
Heat Index: -15°   Visibility: 15mi
Dew Point: -20°   Wind: 9mph
Humidity: 77%   Direction: 40°NE
Pressure: 30.15"   Gusts: NA
Location:  68.78°N, 114.78°W
Report Text: CYCO 221700Z 04008KT 15SM IC FEW040 SCT160 M26/M29 A3015 RMK SC2AC1 SLP213
Loading
Personal Weather Stations






























Interactive Weather Map New forecast layout! Learn more

10-Day Weather Forecast

Advertisements
Track Severe Weather on mobile